createdAt,value
2022-11-12T00:02:34.983Z,64.90
2022-11-12T00:05:22.718Z,63.42
2022-11-12T00:08:09.187Z,61.28
2022-11-12T00:10:55.475Z,55.45
2022-11-12T00:13:41.880Z,50.88
2022-11-12T00:16:28.527Z,58.22
2022-11-12T00:19:14.719Z,58.40
2022-11-12T00:22:02.019Z,51.72
2022-11-12T00:24:48.358Z,54.55
2022-11-12T00:27:34.811Z,52.03
2022-11-12T00:30:20.858Z,52.08
2022-11-12T00:33:08.888Z,48.83
2022-11-12T00:35:59.115Z,47.45
2022-11-12T00:38:45.246Z,48.35
2022-11-12T00:41:31.050Z,49.00
2022-11-12T00:44:17.509Z,50.47
2022-11-12T00:47:03.823Z,47.55
2022-11-12T00:49:50.761Z,47.70
2022-11-12T00:52:37.211Z,46.90
2022-11-12T00:55:23.206Z,48.47
2022-11-12T00:58:09.056Z,49.75
2022-11-12T01:00:55.031Z,47.17
2022-11-12T01:03:42.461Z,53.35
2022-11-12T01:06:30.224Z,48.58
2022-11-12T01:09:16.749Z,48.25
2022-11-12T01:12:03.349Z,50.42
2022-11-12T01:14:49.698Z,47.75
2022-11-12T01:17:38.787Z,57.28
2022-11-12T01:20:25.675Z,56.83
2022-11-12T01:23:12.217Z,45.20
2022-11-12T01:26:03.534Z,54.83
2022-11-12T01:28:53.227Z,48.08
2022-11-12T01:31:39.687Z,55.53
2022-11-12T01:34:26.524Z,54.88
2022-11-12T01:37:13.094Z,59.55
2022-11-12T01:39:59.114Z,50.10
2022-11-12T01:42:52.624Z,50.03
2022-11-12T01:45:46.631Z,53.53
2022-11-12T01:48:38.551Z,49.80
2022-11-12T01:51:32.946Z,57.58
2022-11-12T01:54:21.758Z,57.95
2022-11-12T01:57:10.782Z,63.53
2022-11-12T02:00:02.151Z,63.53
2022-11-12T02:03:00.044Z,57.83
2022-11-12T02:05:49.654Z,67.60
2022-11-12T02:08:38.889Z,60.35
2022-11-12T02:11:24.925Z,77.30
2022-11-12T02:14:12.489Z,61.22
2022-11-12T02:17:01.751Z,64.35
2022-11-12T02:19:52.661Z,63.83
2022-11-12T02:22:40.537Z,58.70
2022-11-12T02:25:28.426Z,59.70
2022-11-12T02:28:16.851Z,59.10
2022-11-12T02:31:03.091Z,66.47
2022-11-12T02:33:50.886Z,58.50
2022-11-12T02:36:37.547Z,64.65
2022-11-12T02:39:24.011Z,60.70
2022-11-12T02:42:11.943Z,59.90
2022-11-12T02:44:57.794Z,51.83
2022-11-12T02:47:44.090Z,55.95
2022-11-12T02:50:30.148Z,53.53
2022-11-12T02:53:19.416Z,57.53
2022-11-12T02:56:05.809Z,52.83
2022-11-12T02:58:51.857Z,52.50
2022-11-12T03:01:38.249Z,48.15
2022-11-12T03:04:24.619Z,46.95
2022-11-12T03:07:10.420Z,48.33
2022-11-12T03:09:56.710Z,47.53
2022-11-12T03:12:43.272Z,45.90
2022-11-12T03:15:30.314Z,53.50
2022-11-12T03:18:16.693Z,58.22
2022-11-12T03:21:02.505Z,49.85
2022-11-12T03:23:49.438Z,50.55
2022-11-12T03:26:36.201Z,49.72
2022-11-12T03:29:23.043Z,48.22
2022-11-12T03:32:09.242Z,43.35
2022-11-12T03:34:55.891Z,44.83
2022-11-12T03:37:41.942Z,42.75
2022-11-12T03:40:29.517Z,46.42
2022-11-12T03:43:15.869Z,46.67
2022-11-12T03:46:02.481Z,45.78
2022-11-12T03:48:48.643Z,40.85
2022-11-12T03:51:34.886Z,43.17
2022-11-12T03:54:20.628Z,44.22
2022-11-12T03:57:07.038Z,40.75
2022-11-12T03:59:54.809Z,44.15
2022-11-12T04:02:41.729Z,40.10
2022-11-12T04:05:46.890Z,44.38
2022-11-12T04:08:36.277Z,46.70
2022-11-12T04:11:23.910Z,42.90
2022-11-12T04:14:10.336Z,40.83
2022-11-12T04:17:15.271Z,41.05
2022-11-12T04:20:20.831Z,37.08
2022-11-12T04:23:06.866Z,38.65
2022-11-12T04:26:12.006Z,41.80
2022-11-12T04:29:18.697Z,35.47
2022-11-12T04:32:05.296Z,38.35
2022-11-12T04:34:51.710Z,33.63
2022-11-12T04:37:46.072Z,36.15
2022-11-12T04:40:51.222Z,37.40
2022-11-12T04:44:01.294Z,37.05
2022-11-12T04:46:48.461Z,41.17
2022-11-12T04:49:34.935Z,35.33
2022-11-12T04:52:21.369Z,39.05
2022-11-12T04:55:08.420Z,35.65
2022-11-12T04:58:00.434Z,37.50
2022-11-12T05:00:48.095Z,43.17
2022-11-12T05:03:33.988Z,38.83
2022-11-12T05:06:39.599Z,33.95
2022-11-12T05:09:28.209Z,35.47
2022-11-12T05:12:14.582Z,44.72
2022-11-12T05:15:01.213Z,44.53
2022-11-12T05:17:48.680Z,39.08
2022-11-12T05:20:36.547Z,37.65
2022-11-12T05:23:23.081Z,37.10
2022-11-12T05:26:09.841Z,39.05
2022-11-12T05:28:57.130Z,45.15
2022-11-12T05:31:43.681Z,39.03
2022-11-12T05:34:30.305Z,46.22
2022-11-12T05:37:17.259Z,56.40
2022-11-12T05:40:03.544Z,57.33
2022-11-12T05:42:49.664Z,51.92
2022-11-12T05:45:36.554Z,60.97
2022-11-12T05:48:24.538Z,52.35
2022-11-12T05:51:14.319Z,69.03
2022-11-12T05:54:01.732Z,62.83
2022-11-12T05:56:48.599Z,67.63
2022-11-12T05:59:35.894Z,53.30
2022-11-12T06:02:22.285Z,62.10
2022-11-12T06:05:08.938Z,60.63
2022-11-12T06:07:55.502Z,66.70
2022-11-12T06:10:41.940Z,60.95
2022-11-12T06:13:28.496Z,66.05
2022-11-12T06:16:14.699Z,56.25
2022-11-12T06:19:01.076Z,60.17
2022-11-12T06:21:48.370Z,58.38
2022-11-12T06:24:35.529Z,57.88
2022-11-12T06:27:24.046Z,62.03
2022-11-12T06:30:10.697Z,66.40
2022-11-12T06:32:57.021Z,64.05
2022-11-12T06:35:43.446Z,67.35
2022-11-12T06:38:31.086Z,62.90
2022-11-12T06:41:17.485Z,51.00
2022-11-12T06:44:06.013Z,49.28
2022-11-12T06:46:53.035Z,51.40
2022-11-12T06:49:39.464Z,41.05
2022-11-12T06:52:25.652Z,42.05
2022-11-12T06:55:12.885Z,41.17
2022-11-12T06:57:59.406Z,37.67
2022-11-12T07:00:45.420Z,41.90
2022-11-12T07:03:32.040Z,47.83
2022-11-12T07:06:20.309Z,57.33
2022-11-12T07:09:06.902Z,62.05
2022-11-12T07:11:53.347Z,57.40
2022-11-12T07:14:39.909Z,55.60
2022-11-12T07:17:26.129Z,47.95
2022-11-12T07:20:13.550Z,43.95
2022-11-12T07:23:02.601Z,32.50
2022-11-12T07:25:56.733Z,34.97
2022-11-12T07:28:45.527Z,32.55
2022-11-12T07:31:32.057Z,27.17
2022-11-12T07:34:17.864Z,32.85
2022-11-12T07:37:04.240Z,28.88
2022-11-12T07:39:50.742Z,28.58
2022-11-12T07:42:38.886Z,28.43
2022-11-12T07:45:24.835Z,26.42
2022-11-12T07:48:11.243Z,24.85
2022-11-12T07:51:14.063Z,24.00
2022-11-12T07:54:01.232Z,22.55
2022-11-12T07:56:47.649Z,22.15
2022-11-12T07:59:33.874Z,24.50
2022-11-12T08:02:19.998Z,23.20
2022-11-12T08:05:13.590Z,23.48
2022-11-12T08:08:03.306Z,25.33
2022-11-12T08:10:54.684Z,23.23
2022-11-12T08:13:43.535Z,21.75
2022-11-12T08:16:30.046Z,22.58
2022-11-12T08:19:16.232Z,20.42
2022-11-12T08:22:02.525Z,17.33
2022-11-12T08:24:48.617Z,17.55
2022-11-12T08:27:36.656Z,15.80
2022-11-12T08:30:22.897Z,15.65
2022-11-12T08:33:09.854Z,16.73
2022-11-12T08:35:57.120Z,15.05
2022-11-12T08:38:43.696Z,14.80
2022-11-12T08:41:30.968Z,13.63
2022-11-12T08:44:19.820Z,15.20
2022-11-12T08:47:06.319Z,16.20
2022-11-12T08:49:52.580Z,13.05
2022-11-12T08:52:40.444Z,13.95
2022-11-12T08:55:26.764Z,11.90
2022-11-12T08:58:13.461Z,12.02
2022-11-12T09:01:08.287Z,14.13
2022-11-12T09:03:55.038Z,15.40
2022-11-12T09:06:43.019Z,20.30
2022-11-12T09:09:29.679Z,15.15
2022-11-12T09:12:19.880Z,15.95
2022-11-12T09:18:15.309Z,20.13
2022-11-12T09:21:05.678Z,17.55
2022-11-12T09:23:52.221Z,16.75
2022-11-12T09:26:39.403Z,19.23
2022-11-12T09:29:25.364Z,27.35
2022-11-12T09:32:11.262Z,21.27
2022-11-12T09:34:57.767Z,20.98
2022-11-12T09:37:44.177Z,18.38
2022-11-12T09:40:36.591Z,16.88
2022-11-12T09:43:37.473Z,19.02
2022-11-12T09:46:35.229Z,19.30
2022-11-12T09:49:29.047Z,19.55
2022-11-12T09:52:34.319Z,18.65
2022-11-12T09:55:38.716Z,20.98
2022-11-12T09:58:26.327Z,20.38
2022-11-12T10:01:34.560Z,19.20
2022-11-12T10:04:39.095Z,24.42
2022-11-12T10:07:49.597Z,25.45
2022-11-12T10:10:49.217Z,18.17
2022-11-12T10:13:43.919Z,24.05
2022-11-12T10:16:48.863Z,21.45
2022-11-12T10:20:06.433Z,20.77
2022-11-12T10:23:27.724Z,17.58
2022-11-12T10:26:17.134Z,19.40
2022-11-12T10:29:07.984Z,15.98
2022-11-12T10:31:53.724Z,17.45
2022-11-12T10:34:40.348Z,17.05
2022-11-12T10:38:12.709Z,18.63
2022-11-12T10:41:18.947Z,16.70
2022-11-12T10:44:06.969Z,15.00
2022-11-12T10:47:16.106Z,16.30
2022-11-12T10:50:04.949Z,19.50
2022-11-12T10:53:13.086Z,18.35
2022-11-12T10:56:01.430Z,16.15
2022-11-12T10:59:25.779Z,17.63
2022-11-12T11:02:19.297Z,16.25
2022-11-12T11:05:29.855Z,16.80
2022-11-12T11:08:36.466Z,24.58
2022-11-12T11:11:28.585Z,26.73
2022-11-12T11:14:28.537Z,22.67
2022-11-12T11:17:18.034Z,21.48
2022-11-12T11:20:14.981Z,20.33
2022-11-12T11:23:42.990Z,22.45
2022-11-12T11:26:56.985Z,21.60
2022-11-12T11:29:59.777Z,21.77
2022-11-12T11:33:02.623Z,22.13
2022-11-12T11:36:16.392Z,22.05
2022-11-12T11:39:21.637Z,45.03
2022-11-12T11:42:13.470Z,27.52
2022-11-12T11:45:23.584Z,27.55
2022-11-12T11:48:32.247Z,21.65
2022-11-12T11:51:33.505Z,23.38
2022-11-12T11:54:45.411Z,22.85
2022-11-12T11:57:54.454Z,20.48
2022-11-12T12:04:00.305Z,20.70
2022-11-12T12:06:53.921Z,17.17
2022-11-12T12:10:17.488Z,24.88
2022-11-12T12:13:13.787Z,15.40
2022-11-12T12:16:02.452Z,19.20
2022-11-12T12:19:10.689Z,17.30
2022-11-12T12:22:01.073Z,19.35
2022-11-12T12:24:55.431Z,38.78
2022-11-12T12:28:21.740Z,16.42
2022-11-12T12:31:14.892Z,21.67
2022-11-12T12:34:13.067Z,14.88
2022-11-12T12:37:39.589Z,18.02
2022-11-12T12:40:34.327Z,20.75
2022-11-12T12:43:35.298Z,17.08
2022-11-12T12:46:26.147Z,19.88
2022-11-12T12:52:01.704Z,20.48
2022-11-12T12:54:47.864Z,18.83
2022-11-12T12:57:38.209Z,16.80
2022-11-12T13:00:29.943Z,17.45
2022-11-12T13:03:44.726Z,15.77
2022-11-12T13:06:46.735Z,36.15
2022-11-12T13:09:33.360Z,20.10
2022-11-12T13:12:19.461Z,16.30
2022-11-12T13:15:15.154Z,14.15
2022-11-12T13:18:01.703Z,14.50
2022-11-12T13:21:08.264Z,13.68
2022-11-12T13:24:12.479Z,15.68
2022-11-12T13:26:59.727Z,19.98
2022-11-12T13:29:48.069Z,21.13
2022-11-12T13:32:47.022Z,20.02
2022-11-12T13:35:37.688Z,18.58
2022-11-12T13:38:24.284Z,13.85
2022-11-12T13:41:11.088Z,17.38
2022-11-12T13:43:57.600Z,15.13
2022-11-12T13:46:45.503Z,20.25
2022-11-12T13:49:32.200Z,16.52
2022-11-12T13:52:19.416Z,15.40
2022-11-12T13:55:26.857Z,17.40
2022-11-12T13:58:20.162Z,17.35
2022-11-12T14:01:08.017Z,18.38
2022-11-12T14:03:54.259Z,18.58
2022-11-12T14:06:56.652Z,18.63
2022-11-12T14:09:49.951Z,18.58
2022-11-12T14:12:50.357Z,17.85
2022-11-12T14:16:09.696Z,20.13
2022-11-12T14:19:08.795Z,18.90
2022-11-12T14:22:11.056Z,19.55
2022-11-12T14:25:02.648Z,16.95
2022-11-12T14:27:55.537Z,20.73
2022-11-12T14:30:45.226Z,19.33
2022-11-12T14:33:33.251Z,22.90
2022-11-12T14:36:20.268Z,20.98
2022-11-12T14:39:07.386Z,19.85
2022-11-12T14:41:55.473Z,18.60
2022-11-12T14:44:41.888Z,18.92
2022-11-12T14:47:27.863Z,22.35
2022-11-12T14:50:23.344Z,24.73
2022-11-12T14:53:25.281Z,27.83
2022-11-12T14:56:21.622Z,24.75
2022-11-12T14:59:12.845Z,27.73
2022-11-12T15:02:31.416Z,24.52
2022-11-12T15:05:18.387Z,29.08
2022-11-12T15:08:13.608Z,31.63
2022-11-12T15:11:26.706Z,24.10
2022-11-12T15:14:21.874Z,31.48
2022-11-12T15:17:28.976Z,27.90
2022-11-12T15:20:17.735Z,32.20
2022-11-12T15:23:04.533Z,37.15
2022-11-12T15:26:01.158Z,27.40
2022-11-12T15:29:01.577Z,31.00
2022-11-12T15:31:53.952Z,29.02
2022-11-12T15:34:40.174Z,29.40
2022-11-12T15:37:31.086Z,27.45
2022-11-12T15:40:21.987Z,26.73
2022-11-12T15:43:21.249Z,30.30
2022-11-12T15:46:14.437Z,28.98
2022-11-12T15:49:01.374Z,25.83
2022-11-12T15:51:47.898Z,26.20
2022-11-12T15:54:39.740Z,28.38
2022-11-12T15:57:31.850Z,28.20
2022-11-12T16:00:25.995Z,26.17
2022-11-12T16:03:17.615Z,30.05
2022-11-12T16:06:08.573Z,27.35
2022-11-12T16:08:55.239Z,26.95
2022-11-12T16:11:41.744Z,28.63
2022-11-12T16:14:28.290Z,24.42
2022-11-12T16:17:16.951Z,27.20
2022-11-12T16:20:23.300Z,31.70
2022-11-12T16:23:09.947Z,30.90
2022-11-12T16:25:56.284Z,28.38
2022-11-12T16:28:43.927Z,28.55
2022-11-12T16:31:30.470Z,26.55
2022-11-12T16:34:16.737Z,27.08
2022-11-12T16:37:03.430Z,27.60
2022-11-12T16:39:49.442Z,29.80
2022-11-12T16:42:36.343Z,24.02
2022-11-12T16:45:25.688Z,27.63
2022-11-12T16:48:22.395Z,24.07
2022-11-12T16:51:17.941Z,24.42
2022-11-12T16:54:04.965Z,25.25
2022-11-12T16:56:52.305Z,27.90
2022-11-12T16:59:38.945Z,30.25
2022-11-12T17:02:26.375Z,30.40
2022-11-12T17:05:20.568Z,28.88
2022-11-12T17:08:06.560Z,30.63
2022-11-12T17:10:52.534Z,27.73
2022-11-12T17:13:39.025Z,23.85
2022-11-12T17:16:25.415Z,29.92
2022-11-12T17:19:12.018Z,27.65
2022-11-12T17:21:58.741Z,26.00
2022-11-12T17:24:44.631Z,28.67
2022-11-12T17:27:31.596Z,24.40
2022-11-12T17:30:18.398Z,31.20
2022-11-12T17:33:04.635Z,34.60
2022-11-12T17:35:52.018Z,32.05
2022-11-12T17:38:38.678Z,29.70
2022-11-12T17:41:26.366Z,29.48
2022-11-12T17:44:17.333Z,29.63
2022-11-12T17:47:04.105Z,27.65
2022-11-12T17:49:50.050Z,30.35
2022-11-12T17:52:36.474Z,28.60
2022-11-12T17:55:22.508Z,26.85
2022-11-12T17:58:09.023Z,29.00
2022-11-12T18:00:54.877Z,27.23
2022-11-12T18:03:45.030Z,28.45
2022-11-12T18:06:34.227Z,31.08
2022-11-12T18:09:20.242Z,31.17
2022-11-12T18:12:06.858Z,26.83
2022-11-12T18:14:53.050Z,30.35
2022-11-12T18:17:59.552Z,29.50
2022-11-12T18:20:46.065Z,26.85
2022-11-12T18:23:35.791Z,27.65
2022-11-12T18:26:22.127Z,28.63
2022-11-12T18:29:08.279Z,31.15
2022-11-12T18:31:54.697Z,30.20
2022-11-12T18:34:45.152Z,25.55
2022-11-12T18:37:31.759Z,29.95
2022-11-12T18:40:18.227Z,29.30
2022-11-12T18:43:04.392Z,25.30
2022-11-12T18:46:01.440Z,24.75
2022-11-12T18:48:47.982Z,25.92
2022-11-12T18:51:34.829Z,24.02
2022-11-12T18:54:21.136Z,25.05
2022-11-12T18:57:07.379Z,24.58
2022-11-12T18:59:55.141Z,23.58
2022-11-12T19:02:43.225Z,21.30
2022-11-12T19:05:29.510Z,28.55
2022-11-12T19:08:16.959Z,22.17
2022-11-12T19:11:11.518Z,24.70
2022-11-12T19:13:58.607Z,21.52
2022-11-12T19:16:45.171Z,20.08
2022-11-12T19:19:31.593Z,27.88
2022-11-12T19:22:18.353Z,21.30
2022-11-12T19:25:05.097Z,22.20
2022-11-12T19:27:51.536Z,20.05
2022-11-12T19:30:38.696Z,23.65
2022-11-12T19:33:25.051Z,21.00
2022-11-12T19:36:17.222Z,21.70
2022-11-12T19:39:03.721Z,22.05
2022-11-12T19:41:50.381Z,18.85
2022-11-12T19:44:36.575Z,21.20
2022-11-12T19:47:22.746Z,19.33
2022-11-12T19:50:09.916Z,19.23
2022-11-12T19:52:56.647Z,22.98
2022-11-12T19:55:43.101Z,21.63
2022-11-12T19:58:31.851Z,21.35
2022-11-12T20:01:19.019Z,17.10
2022-11-12T20:04:05.481Z,21.40
2022-11-12T20:06:52.231Z,21.13
2022-11-12T20:09:38.699Z,36.78
2022-11-12T20:12:25.355Z,24.58
2022-11-12T20:15:12.025Z,23.50
2022-11-12T20:17:58.340Z,21.20
2022-11-12T20:20:55.908Z,21.10
2022-11-12T20:23:43.178Z,25.85
2022-11-12T20:26:29.728Z,36.17
2022-11-12T20:29:15.869Z,20.77
2022-11-12T20:32:02.948Z,20.17
2022-11-12T20:34:50.278Z,23.33
2022-11-12T20:37:37.014Z,18.15
2022-11-12T20:40:22.967Z,22.92
2022-11-12T20:43:09.232Z,17.48
2022-11-12T20:45:55.425Z,20.05
2022-11-12T20:48:43.586Z,33.58
2022-11-12T20:51:30.354Z,22.08
2022-11-12T20:54:16.436Z,19.90
2022-11-12T20:57:03.354Z,19.50
2022-11-12T20:59:51.481Z,24.08
2022-11-12T21:02:37.789Z,18.25
2022-11-12T21:05:24.544Z,20.73
2022-11-12T21:08:10.610Z,18.67
2022-11-12T21:10:58.044Z,20.40
2022-11-12T21:13:44.277Z,20.23
2022-11-12T21:16:30.921Z,24.67
2022-11-12T21:19:17.405Z,21.98
2022-11-12T21:22:03.765Z,19.30
2022-11-12T21:24:50.048Z,22.70
2022-11-12T21:27:37.925Z,24.15
2022-11-12T21:30:24.222Z,24.77
2022-11-12T21:33:12.201Z,22.13
2022-11-12T21:35:59.681Z,21.88
2022-11-12T21:38:46.585Z,21.40
2022-11-12T21:41:33.137Z,22.63
2022-11-12T21:44:19.813Z,23.58
2022-11-12T21:47:07.039Z,21.80
2022-11-12T21:49:54.853Z,27.00
2022-11-12T21:55:52.363Z,58.03
2022-11-12T21:58:39.458Z,26.67
2022-11-12T22:01:28.604Z,24.10
2022-11-12T22:04:18.259Z,25.40
2022-11-12T22:07:05.014Z,27.80
2022-11-12T22:09:56.476Z,31.67
2022-11-12T22:13:04.855Z,24.35
2022-11-12T22:15:50.759Z,26.27
2022-11-12T22:18:39.061Z,25.65
2022-11-12T22:21:27.036Z,30.15
2022-11-12T22:24:13.400Z,28.08
2022-11-12T22:27:05.078Z,25.00
2022-11-12T22:29:52.024Z,26.45
2022-11-12T22:32:38.799Z,30.00
2022-11-12T22:35:24.982Z,24.08
2022-11-12T22:38:12.259Z,27.98
2022-11-12T22:41:09.155Z,28.35
2022-11-12T22:43:58.953Z,31.50
2022-11-12T22:46:45.640Z,26.98
2022-11-12T22:49:31.437Z,31.20
2022-11-12T22:52:17.915Z,23.85
2022-11-12T22:55:04.826Z,23.13
2022-11-12T22:57:51.386Z,30.05
2022-11-12T23:00:42.557Z,27.58
2022-11-12T23:06:17.520Z,26.80
2022-11-12T23:09:04.356Z,27.85
2022-11-12T23:11:51.134Z,28.33
2022-11-12T23:14:37.633Z,27.30
2022-11-12T23:17:24.198Z,24.50
2022-11-12T23:20:11.881Z,34.17
2022-11-12T23:22:58.172Z,26.20
2022-11-12T23:25:45.480Z,33.95
2022-11-12T23:28:33.884Z,54.47
2022-11-12T23:31:26.160Z,32.22
2022-11-12T23:34:12.998Z,32.88
2022-11-12T23:36:59.888Z,38.45
2022-11-12T23:39:46.667Z,30.80
2022-11-12T23:42:32.933Z,32.00
2022-11-12T23:45:19.551Z,30.85
2022-11-12T23:48:06.158Z,32.88
2022-11-12T23:51:01.572Z,32.20
2022-11-12T23:53:49.092Z,27.55
2022-11-12T23:56:35.637Z,26.38
2022-11-12T23:59:21.804Z,37.15
